createdAt,value
2024-03-10T00:00:49.660Z,10.30
2024-03-10T00:03:18.063Z,11.55
2024-03-10T00:05:46.457Z,10.35
2024-03-10T00:08:14.682Z,10.32
2024-03-10T00:10:43.733Z,11.18
2024-03-10T00:13:12.188Z,11.82
2024-03-10T00:15:40.338Z,10.40
2024-03-10T00:18:08.789Z,10.60
2024-03-10T00:20:37.336Z,12.63
2024-03-10T00:23:06.197Z,13.27
2024-03-10T00:25:34.368Z,14.15
2024-03-10T00:28:02.990Z,13.90
2024-03-10T00:30:31.463Z,13.40
2024-03-10T00:32:59.764Z,14.45
2024-03-10T00:35:28.118Z,13.85
2024-03-10T00:37:56.346Z,14.10
2024-03-10T00:40:26.424Z,13.82
2024-03-10T00:42:54.747Z,12.82
2024-03-10T00:45:25.374Z,13.63
2024-03-10T00:47:57.345Z,12.68
2024-03-10T00:50:25.633Z,13.70
2024-03-10T00:52:54.179Z,13.40
2024-03-10T00:55:22.355Z,13.52
2024-03-10T00:57:50.518Z,14.40
2024-03-10T01:00:18.901Z,13.90
2024-03-10T01:02:50.642Z,13.18
2024-03-10T01:05:26.569Z,13.40
2024-03-10T01:07:57.877Z,13.10
2024-03-10T01:10:26.198Z,12.57
2024-03-10T01:12:54.612Z,12.80
2024-03-10T01:15:24.130Z,13.30
2024-03-10T01:17:52.932Z,13.20
2024-03-10T01:20:22.119Z,13.30
2024-03-10T01:22:50.475Z,14.93
2024-03-10T01:25:18.689Z,13.27
2024-03-10T01:27:47.026Z,13.75
2024-03-10T01:30:16.437Z,14.10
2024-03-10T01:32:44.751Z,13.65
2024-03-10T01:35:13.468Z,14.48
2024-03-10T01:37:41.677Z,15.18
2024-03-10T01:40:12.048Z,13.27
2024-03-10T01:42:40.243Z,14.10
2024-03-10T01:45:09.012Z,13.65
2024-03-10T01:47:37.467Z,12.73
2024-03-10T01:50:08.605Z,13.35
2024-03-10T01:52:37.284Z,14.13
2024-03-10T01:55:06.938Z,12.85
2024-03-10T01:57:35.704Z,14.73
2024-03-10T02:00:08.243Z,13.85
2024-03-10T02:02:45.365Z,12.98
2024-03-10T02:05:13.587Z,15.55
2024-03-10T02:07:41.802Z,14.85
2024-03-10T02:10:10.932Z,13.57
2024-03-10T02:12:40.107Z,14.23
2024-03-10T02:15:09.075Z,14.35
2024-03-10T02:17:42.802Z,13.68
2024-03-10T02:20:22.530Z,12.57
2024-03-10T02:22:51.870Z,13.95
2024-03-10T02:25:25.341Z,13.23
2024-03-10T02:27:55.110Z,13.38
2024-03-10T02:30:32.234Z,13.85
2024-03-10T02:33:19.167Z,12.85
2024-03-10T02:36:08.357Z,13.18
2024-03-10T02:38:55.074Z,14.98
2024-03-10T02:41:41.774Z,13.93
2024-03-10T02:44:28.505Z,13.35
2024-03-10T02:47:15.084Z,13.43
2024-03-10T02:49:44.151Z,12.57
2024-03-10T02:52:14.889Z,14.45
2024-03-10T02:54:43.143Z,14.40
2024-03-10T02:57:11.413Z,15.18
2024-03-10T02:59:39.695Z,13.57
2024-03-10T03:02:08.874Z,13.25
2024-03-10T03:04:37.104Z,12.88
2024-03-10T03:07:05.230Z,13.73
2024-03-10T03:09:33.424Z,14.20
2024-03-10T03:12:02.000Z,13.43
2024-03-10T03:14:30.463Z,14.60
2024-03-10T03:16:58.715Z,15.10
2024-03-10T03:19:26.888Z,15.57
2024-03-10T03:21:55.045Z,15.40
2024-03-10T03:24:23.170Z,14.80
2024-03-10T03:26:51.323Z,18.25
2024-03-10T03:29:19.953Z,20.80
2024-03-10T03:31:48.592Z,15.30
2024-03-10T03:34:18.019Z,17.13
2024-03-10T03:36:46.505Z,16.55
2024-03-10T03:39:15.960Z,15.90
2024-03-10T03:41:44.183Z,15.57
2024-03-10T03:44:12.367Z,14.82
2024-03-10T03:46:41.010Z,14.93
2024-03-10T03:49:09.205Z,14.88
2024-03-10T03:51:37.493Z,14.63
2024-03-10T03:54:08.006Z,15.73
2024-03-10T03:56:36.163Z,16.53
2024-03-10T03:59:06.088Z,15.60
2024-03-10T04:01:34.357Z,16.08
2024-03-10T04:04:03.919Z,16.70
2024-03-10T04:06:32.455Z,16.63
2024-03-10T04:09:00.635Z,16.23
2024-03-10T04:11:29.890Z,17.70
2024-03-10T04:13:58.123Z,17.55
2024-03-10T04:16:26.326Z,17.55
2024-03-10T04:18:57.260Z,17.05
2024-03-10T04:21:25.462Z,16.75
2024-03-10T04:23:56.489Z,17.08
2024-03-10T04:26:27.495Z,17.63
2024-03-10T04:28:56.643Z,17.70
2024-03-10T04:31:26.399Z,16.55
2024-03-10T04:33:54.617Z,18.25
2024-03-10T04:36:22.973Z,18.52
2024-03-10T04:38:51.572Z,17.52
2024-03-10T04:41:19.831Z,17.75
2024-03-10T04:43:48.142Z,19.88
2024-03-10T04:46:16.429Z,17.85
2024-03-10T04:48:44.769Z,17.92
2024-03-10T04:51:12.977Z,18.30
2024-03-10T04:53:41.405Z,17.27
2024-03-10T04:56:12.027Z,18.35
2024-03-10T04:58:41.625Z,17.60
2024-03-10T05:01:10.631Z,18.42
2024-03-10T05:03:40.394Z,18.17
2024-03-10T05:06:09.354Z,18.33
2024-03-10T05:08:37.842Z,18.48
2024-03-10T05:11:06.241Z,18.77
2024-03-10T05:13:38.562Z,18.17
2024-03-10T05:16:08.270Z,17.95
2024-03-10T05:18:36.586Z,18.42
2024-03-10T05:21:05.189Z,19.42
2024-03-10T05:23:33.520Z,18.58
2024-03-10T05:26:01.999Z,18.88
2024-03-10T05:28:30.196Z,18.60
2024-03-10T05:30:58.496Z,17.48
2024-03-10T05:33:27.471Z,18.83
2024-03-10T05:35:55.622Z,17.95
2024-03-10T05:38:24.030Z,17.98
2024-03-10T05:40:52.530Z,17.80
2024-03-10T05:43:22.377Z,18.10
2024-03-10T05:45:50.545Z,17.77
2024-03-10T05:48:24.721Z,17.63
2024-03-10T05:50:56.351Z,19.05
2024-03-10T05:53:24.639Z,17.65
2024-03-10T05:55:54.809Z,17.10
2024-03-10T05:58:23.782Z,16.73
2024-03-10T06:00:52.045Z,17.58
2024-03-10T06:03:23.048Z,17.63
2024-03-10T06:05:54.104Z,17.77
2024-03-10T06:08:22.520Z,16.63
2024-03-10T06:10:51.436Z,16.73
2024-03-10T06:13:20.276Z,18.00
2024-03-10T06:15:48.643Z,16.83
2024-03-10T06:18:33.940Z,15.90
2024-03-10T06:21:20.753Z,16.73
2024-03-10T06:24:07.553Z,16.63
2024-03-10T06:26:35.793Z,15.80
2024-03-10T06:29:04.887Z,16.73
2024-03-10T06:31:34.462Z,15.50
2024-03-10T06:34:02.697Z,16.38
2024-03-10T06:36:30.866Z,16.38
2024-03-10T06:38:59.595Z,15.48
2024-03-10T06:41:27.923Z,15.80
2024-03-10T06:43:56.619Z,14.70
2024-03-10T06:46:27.638Z,15.60
2024-03-10T06:48:56.337Z,15.50
2024-03-10T06:51:25.147Z,19.67
2024-03-10T06:53:53.348Z,19.45
2024-03-10T06:56:21.531Z,14.98
2024-03-10T06:58:54.097Z,14.57
2024-03-10T07:01:25.764Z,14.48
2024-03-10T07:03:55.293Z,14.85
2024-03-10T07:06:24.001Z,12.90
2024-03-10T07:08:52.168Z,13.35
2024-03-10T07:11:20.436Z,13.52
2024-03-10T07:13:48.646Z,13.68
2024-03-10T07:16:17.557Z,14.45
2024-03-10T07:18:45.766Z,13.63
2024-03-10T07:21:14.026Z,14.35
2024-03-10T07:23:43.070Z,14.23
2024-03-10T07:26:11.373Z,14.10
2024-03-10T07:28:39.677Z,13.57
2024-03-10T07:31:08.008Z,12.52
2024-03-10T07:33:36.308Z,13.25
2024-03-10T07:36:04.815Z,16.45
2024-03-10T07:38:33.427Z,15.65
2024-03-10T07:41:04.957Z,13.52
2024-03-10T07:43:34.297Z,11.90
2024-03-10T07:46:05.529Z,11.35
2024-03-10T07:48:38.347Z,11.93
2024-03-10T07:51:06.745Z,11.82
2024-03-10T07:53:35.886Z,11.65
2024-03-10T07:56:04.474Z,11.48
2024-03-10T07:58:32.847Z,10.90
2024-03-10T08:01:01.614Z,10.88
2024-03-10T08:03:30.039Z,10.55
2024-03-10T08:05:58.268Z,10.90
2024-03-10T08:08:26.599Z,10.70
2024-03-10T08:10:55.353Z,10.55
2024-03-10T08:13:23.684Z,10.82
2024-03-10T08:15:52.209Z,10.63
2024-03-10T08:18:20.491Z,11.23
2024-03-10T08:20:48.808Z,10.63
2024-03-10T08:23:17.095Z,10.07
2024-03-10T08:25:47.886Z,10.57
2024-03-10T08:28:16.100Z,9.98
2024-03-10T08:30:44.403Z,10.63
2024-03-10T08:33:12.658Z,9.63
2024-03-10T08:35:40.803Z,10.88
2024-03-10T08:38:09.075Z,10.73
2024-03-10T08:40:37.549Z,10.88
2024-03-10T08:43:06.235Z,10.02
2024-03-10T08:45:36.282Z,10.27
2024-03-10T08:48:07.510Z,9.25
2024-03-10T08:53:08.160Z,9.70
2024-03-10T08:55:37.522Z,9.95
2024-03-10T08:58:05.884Z,9.27
2024-03-10T09:00:34.147Z,9.40
2024-03-10T09:03:02.600Z,8.95
2024-03-10T09:05:31.845Z,8.30
2024-03-10T09:08:02.786Z,9.05
2024-03-10T09:10:39.454Z,7.78
2024-03-10T09:13:13.010Z,8.63
2024-03-10T09:15:42.130Z,8.90
2024-03-10T09:18:10.726Z,7.72
2024-03-10T09:20:40.831Z,9.30
2024-03-10T09:23:09.372Z,8.60
2024-03-10T09:25:38.460Z,8.68
2024-03-10T09:28:08.264Z,8.18
2024-03-10T09:30:36.531Z,7.47
2024-03-10T09:33:05.560Z,8.50
2024-03-10T09:35:37.937Z,8.45
2024-03-10T09:38:09.534Z,7.35
2024-03-10T09:40:37.927Z,8.10
2024-03-10T09:43:14.301Z,7.05
2024-03-10T09:45:49.363Z,8.00
2024-03-10T09:48:17.913Z,7.40
2024-03-10T09:50:51.362Z,6.90
2024-03-10T09:53:20.402Z,7.18
2024-03-10T09:55:54.669Z,6.93
2024-03-10T09:58:56.227Z,6.93
2024-03-10T10:01:27.301Z,6.85
2024-03-10T10:03:56.723Z,6.75
2024-03-10T10:06:25.367Z,6.72
2024-03-10T10:08:57.306Z,6.32
2024-03-10T10:11:28.581Z,5.65
2024-03-10T10:16:49.448Z,6.18
2024-03-10T10:21:47.766Z,5.78
2024-03-10T10:24:18.060Z,5.78
2024-03-10T10:27:01.603Z,6.03
2024-03-10T10:29:30.245Z,6.43
2024-03-10T10:32:08.313Z,6.28
2024-03-10T10:34:37.620Z,6.35
2024-03-10T10:37:06.330Z,6.13
2024-03-10T10:39:35.768Z,5.85
2024-03-10T10:42:10.338Z,6.43
2024-03-10T10:44:44.869Z,6.07
2024-03-10T10:47:18.674Z,12.35
2024-03-10T10:49:49.571Z,6.00
2024-03-10T10:52:17.913Z,5.57
2024-03-10T10:54:46.302Z,6.57
2024-03-10T10:57:16.989Z,6.72
2024-03-10T10:59:50.538Z,6.22
2024-03-10T11:02:21.968Z,6.10
2024-03-10T11:04:50.318Z,6.03
2024-03-10T11:07:18.634Z,6.22
2024-03-10T11:09:47.098Z,5.80
2024-03-10T11:12:25.693Z,5.65
2024-03-10T11:14:55.949Z,6.43
2024-03-10T11:17:26.022Z,5.90
2024-03-10T11:19:55.650Z,5.57
2024-03-10T11:22:30.178Z,5.85
2024-03-10T11:25:13.712Z,6.28
2024-03-10T11:27:49.362Z,5.43
2024-03-10T11:30:42.878Z,6.13
2024-03-10T11:33:13.728Z,6.53
2024-03-10T11:35:42.589Z,6.88
2024-03-10T11:38:11.804Z,5.47
2024-03-10T11:40:40.096Z,5.80
2024-03-10T11:43:10.842Z,6.10
2024-03-10T11:45:42.887Z,5.38
2024-03-10T11:48:11.740Z,5.90
2024-03-10T11:50:40.023Z,5.53
2024-03-10T11:53:08.249Z,5.50
2024-03-10T11:55:36.446Z,5.85
2024-03-10T11:58:05.622Z,5.80
2024-03-10T12:00:34.066Z,5.25
2024-03-10T12:03:02.299Z,5.35
2024-03-10T12:05:31.120Z,5.57
2024-03-10T12:08:00.601Z,5.55
2024-03-10T12:10:30.975Z,5.30
2024-03-10T12:13:00.405Z,5.38
2024-03-10T12:15:33.080Z,5.10
2024-03-10T12:18:07.311Z,4.80
2024-03-10T12:20:35.593Z,4.68
2024-03-10T12:23:03.950Z,4.90
2024-03-10T12:25:35.079Z,4.57
2024-03-10T12:28:03.579Z,4.40
2024-03-10T12:30:31.707Z,4.93
2024-03-10T12:33:06.868Z,4.97
2024-03-10T12:35:35.150Z,5.00
2024-03-10T12:38:04.592Z,4.43
2024-03-10T12:40:34.390Z,4.97
2024-03-10T12:43:06.263Z,4.80
2024-03-10T12:45:35.640Z,4.40
2024-03-10T12:48:03.844Z,4.63
2024-03-10T12:50:33.184Z,4.22
2024-03-10T12:53:04.722Z,4.78
2024-03-10T12:55:33.276Z,4.55
2024-03-10T12:58:01.670Z,4.55
2024-03-10T13:00:31.289Z,4.70
2024-03-10T13:03:00.925Z,4.00
2024-03-10T13:05:31.101Z,5.45
2024-03-10T13:08:06.356Z,7.72
2024-03-10T13:10:34.924Z,5.00
2024-03-10T13:13:06.365Z,4.45
2024-03-10T13:15:34.562Z,4.32
2024-03-10T13:18:10.499Z,4.88
2024-03-10T13:20:42.107Z,4.35
2024-03-10T13:23:13.869Z,4.25
2024-03-10T13:25:42.866Z,4.65
2024-03-10T13:28:11.246Z,4.85
2024-03-10T13:30:42.011Z,4.90
2024-03-10T13:33:10.327Z,4.97
2024-03-10T13:35:38.614Z,5.10
2024-03-10T13:38:07.063Z,5.10
2024-03-10T13:40:35.526Z,4.97
2024-03-10T13:43:03.814Z,5.43
2024-03-10T13:45:38.982Z,5.20
2024-03-10T13:48:11.112Z,5.43
2024-03-10T13:50:39.595Z,5.55
2024-03-10T13:53:10.073Z,5.60
2024-03-10T13:55:38.811Z,5.32
2024-03-10T13:58:07.108Z,5.15
2024-03-10T14:00:35.476Z,5.35
2024-03-10T14:03:04.361Z,4.82
2024-03-10T14:05:32.841Z,5.15
2024-03-10T14:08:01.519Z,5.50
2024-03-10T14:10:29.961Z,5.68
2024-03-10T14:12:58.133Z,4.80
2024-03-10T14:15:40.886Z,4.82
2024-03-10T14:18:10.125Z,4.78
2024-03-10T14:20:38.773Z,4.65
2024-03-10T14:23:07.770Z,5.88
2024-03-10T14:25:36.487Z,6.20
2024-03-10T14:28:08.084Z,6.47
2024-03-10T14:30:36.184Z,4.80
2024-03-10T14:33:05.863Z,6.38
2024-03-10T14:35:34.419Z,6.38
2024-03-10T14:38:03.051Z,5.80
2024-03-10T14:40:31.636Z,5.25
2024-03-10T14:43:01.352Z,5.55
2024-03-10T14:45:31.827Z,5.55
2024-03-10T14:48:00.236Z,5.20
2024-03-10T14:50:34.684Z,6.32
2024-03-10T14:53:03.503Z,5.90
2024-03-10T14:55:31.950Z,5.50
2024-03-10T14:58:02.831Z,5.30
2024-03-10T15:00:40.051Z,5.55
2024-03-10T15:03:13.263Z,5.60
2024-03-10T15:05:44.585Z,6.40
2024-03-10T15:08:19.288Z,5.07
2024-03-10T15:10:49.581Z,5.53
2024-03-10T15:13:19.505Z,6.15
2024-03-10T15:15:48.974Z,5.22
2024-03-10T15:18:18.246Z,5.13
2024-03-10T15:20:49.074Z,5.20
2024-03-10T15:23:19.677Z,5.63
2024-03-10T15:25:49.492Z,5.78
2024-03-10T15:28:18.471Z,6.47
2024-03-10T15:30:47.354Z,6.65
2024-03-10T15:33:16.489Z,6.85
2024-03-10T15:35:44.745Z,6.18
2024-03-10T15:38:15.904Z,6.93
2024-03-10T15:40:44.966Z,6.25
2024-03-10T15:43:15.068Z,6.40
2024-03-10T15:45:44.493Z,6.72
2024-03-10T15:48:13.155Z,6.82
2024-03-10T15:50:41.654Z,7.13
2024-03-10T15:53:12.601Z,6.93
2024-03-10T15:55:40.967Z,10.93
2024-03-10T15:58:09.887Z,6.72
2024-03-10T16:00:39.472Z,6.90
2024-03-10T16:03:20.594Z,6.15
2024-03-10T16:05:55.138Z,7.72
2024-03-10T16:08:26.580Z,8.95
2024-03-10T16:10:55.271Z,7.50
2024-03-10T16:13:45.013Z,7.43
2024-03-10T16:16:13.650Z,6.82
2024-03-10T16:18:42.189Z,8.05
2024-03-10T16:21:13.794Z,8.88
2024-03-10T16:23:42.262Z,8.80
2024-03-10T16:26:10.848Z,9.40
2024-03-10T16:28:40.099Z,10.65
2024-03-10T16:31:11.036Z,9.90
2024-03-10T16:33:39.550Z,8.77
2024-03-10T16:36:07.894Z,11.43
2024-03-10T16:38:36.297Z,11.13
2024-03-10T16:41:04.683Z,14.18
2024-03-10T16:43:33.098Z,14.10
2024-03-10T16:46:01.536Z,12.63
2024-03-10T16:48:30.061Z,15.95
2024-03-10T16:50:58.299Z,12.25
2024-03-10T16:53:26.436Z,12.38
2024-03-10T16:55:56.600Z,10.65
2024-03-10T16:58:25.302Z,10.30
2024-03-10T17:00:57.339Z,9.68
2024-03-10T17:03:28.566Z,10.15
2024-03-10T17:05:57.559Z,9.38
2024-03-10T17:08:26.076Z,9.48
2024-03-10T17:10:55.405Z,9.45
2024-03-10T17:13:23.650Z,9.13
2024-03-10T17:15:52.300Z,8.95
2024-03-10T17:18:20.531Z,8.40
2024-03-10T17:20:49.566Z,8.38
2024-03-10T17:23:18.074Z,8.63
2024-03-10T17:25:46.368Z,9.15
2024-03-10T17:28:19.254Z,10.00
2024-03-10T17:30:47.481Z,9.95
2024-03-10T17:33:15.706Z,9.32
2024-03-10T17:35:44.370Z,9.93
2024-03-10T17:38:15.288Z,14.35
2024-03-10T17:40:43.546Z,14.07
2024-03-10T17:43:11.876Z,18.10
2024-03-10T17:45:40.200Z,19.02
2024-03-10T17:48:13.253Z,16.30
2024-03-10T17:50:43.899Z,14.93
2024-03-10T17:53:12.413Z,16.10
2024-03-10T17:55:45.420Z,15.30
2024-03-10T17:58:14.210Z,13.85
2024-03-10T18:00:42.396Z,15.13
2024-03-10T18:03:12.645Z,13.85
2024-03-10T18:05:40.983Z,13.70
2024-03-10T18:08:09.479Z,12.07
2024-03-10T18:10:42.246Z,12.05
2024-03-10T18:13:14.322Z,12.20
2024-03-10T18:15:49.616Z,12.27
2024-03-10T18:18:17.983Z,14.32
2024-03-10T18:20:48.997Z,14.13
2024-03-10T18:23:18.982Z,12.88
2024-03-10T18:25:48.369Z,12.73
2024-03-10T18:28:17.714Z,11.65
2024-03-10T18:30:47.856Z,11.32
2024-03-10T18:33:16.928Z,11.32
2024-03-10T18:35:47.437Z,10.77
2024-03-10T18:38:18.085Z,10.60
2024-03-10T18:40:48.420Z,10.50
2024-03-10T18:43:16.666Z,9.82
2024-03-10T18:45:45.943Z,11.18
2024-03-10T18:48:14.268Z,14.90
2024-03-10T18:50:48.381Z,12.02
2024-03-10T18:53:23.124Z,10.48
2024-03-10T18:55:52.052Z,10.95
2024-03-10T18:58:23.510Z,10.90
2024-03-10T19:00:52.164Z,11.57
2024-03-10T19:03:20.408Z,11.40
2024-03-10T19:05:52.339Z,10.93
2024-03-10T19:08:40.644Z,10.30
2024-03-10T19:11:11.126Z,11.05
2024-03-10T19:13:40.555Z,11.23
2024-03-10T19:16:11.315Z,11.70
2024-03-10T19:18:39.825Z,10.48
2024-03-10T19:21:08.514Z,10.70
2024-03-10T19:23:37.883Z,11.25
2024-03-10T19:26:07.807Z,11.05
2024-03-10T19:28:36.142Z,11.48
2024-03-10T19:31:06.868Z,10.82
2024-03-10T19:33:36.189Z,12.47
2024-03-10T19:36:04.922Z,15.98
2024-03-10T19:38:33.297Z,14.13
2024-03-10T19:41:01.769Z,13.73
2024-03-10T19:43:30.219Z,14.40
2024-03-10T19:45:58.981Z,13.07
2024-03-10T19:48:27.496Z,12.35
2024-03-10T19:50:56.125Z,12.05
2024-03-10T19:53:26.048Z,12.88
2024-03-10T19:55:56.000Z,12.70
2024-03-10T19:58:26.069Z,12.95
2024-03-10T20:00:54.330Z,13.00
2024-03-10T20:03:22.747Z,13.45
2024-03-10T20:05:51.323Z,12.68
2024-03-10T20:08:23.659Z,13.65
2024-03-10T20:10:55.525Z,12.57
2024-03-10T20:13:24.368Z,13.02
2024-03-10T20:15:54.303Z,13.32
2024-03-10T20:18:24.714Z,12.65
2024-03-10T20:20:53.391Z,12.23
2024-03-10T20:23:21.979Z,12.15
2024-03-10T20:25:50.319Z,12.73
2024-03-10T20:28:18.533Z,12.05
2024-03-10T20:30:46.753Z,10.82
2024-03-10T20:33:15.110Z,11.68
2024-03-10T20:35:43.509Z,11.77
2024-03-10T20:38:13.457Z,11.10
2024-03-10T20:40:41.650Z,11.27
2024-03-10T20:43:09.764Z,11.88
2024-03-10T20:45:38.340Z,12.73
2024-03-10T20:48:08.035Z,12.93
2024-03-10T20:50:36.329Z,11.75
2024-03-10T20:53:05.776Z,12.75
2024-03-10T20:55:34.193Z,12.73
2024-03-10T20:58:02.393Z,12.20
2024-03-10T21:00:32.121Z,11.98
2024-03-10T21:03:00.783Z,14.00
2024-03-10T21:05:29.802Z,12.35
2024-03-10T21:07:58.161Z,12.50
2024-03-10T21:10:28.280Z,12.40
2024-03-10T21:12:56.511Z,12.63
2024-03-10T21:15:26.222Z,12.65
2024-03-10T21:17:55.858Z,13.05
2024-03-10T21:20:25.472Z,12.48
2024-03-10T21:22:56.743Z,12.93
2024-03-10T21:25:29.970Z,10.98
2024-03-10T21:28:01.992Z,12.07
2024-03-10T21:30:33.479Z,11.80
2024-03-10T21:33:01.715Z,11.73
2024-03-10T21:35:30.187Z,12.02
2024-03-10T21:38:00.556Z,11.20
2024-03-10T21:40:29.507Z,11.73
2024-03-10T21:42:59.079Z,12.60
2024-03-10T21:45:27.217Z,13.18
2024-03-10T21:47:55.553Z,14.07
2024-03-10T21:50:23.916Z,14.45
2024-03-10T21:52:52.307Z,14.75
2024-03-10T21:55:20.722Z,15.60
2024-03-10T21:57:48.912Z,15.02
2024-03-10T22:00:18.297Z,16.05
2024-03-10T22:02:47.821Z,15.93
2024-03-10T22:05:17.164Z,16.75
2024-03-10T22:07:48.614Z,16.23
2024-03-10T22:10:17.955Z,16.92
2024-03-10T22:12:47.394Z,17.90
2024-03-10T22:15:19.835Z,18.13
2024-03-10T22:17:53.504Z,16.90
2024-03-10T22:20:23.947Z,16.65
2024-03-10T22:22:53.080Z,17.95
2024-03-10T22:25:23.409Z,18.30
2024-03-10T22:27:52.699Z,24.50
2024-03-10T22:30:33.031Z,18.27
2024-03-10T22:33:02.698Z,17.55
2024-03-10T22:35:31.018Z,16.95
2024-03-10T22:38:00.252Z,17.27
2024-03-10T22:40:30.249Z,17.92
2024-03-10T22:43:00.383Z,16.77
2024-03-10T22:45:32.496Z,18.38
2024-03-10T22:48:03.058Z,17.95
2024-03-10T22:50:31.644Z,16.05
2024-03-10T22:53:05.016Z,17.38
2024-03-10T22:55:34.802Z,16.88
2024-03-10T22:58:03.258Z,18.35
2024-03-10T23:00:43.928Z,18.45
2024-03-10T23:03:17.104Z,16.97
2024-03-10T23:05:45.999Z,17.95
2024-03-10T23:08:15.520Z,18.00
2024-03-10T23:10:44.957Z,17.13
2024-03-10T23:13:13.211Z,16.42
2024-03-10T23:15:42.141Z,15.85
2024-03-10T23:18:13.517Z,17.48
2024-03-10T23:23:12.468Z,15.30
2024-03-10T23:25:43.785Z,16.23
2024-03-10T23:30:40.194Z,16.70
2024-03-10T23:33:08.716Z,16.58
2024-03-10T23:35:36.918Z,15.95
2024-03-10T23:38:07.220Z,16.67
2024-03-10T23:40:35.866Z,15.70
2024-03-10T23:43:04.065Z,16.83
2024-03-10T23:45:35.461Z,16.73
2024-03-10T23:48:04.234Z,16.42
2024-03-10T23:50:33.473Z,16.58
2024-03-10T23:53:02.809Z,17.02
2024-03-10T23:55:44.146Z,16.20
2024-03-10T23:58:14.138Z,15.65
